Last 30 Days

Squaw-Red Dog 6200'

Daily Data | America/Los_Angeles
as of 12/15/19 10:01 AM PST
Date Daily Max Temp (°F) Max Temp Time Daily Min Temp (°F) Min Temp Time Daily Rain (In) New Snow (in) SnowDepth (in) Wind Spd (mph) Daily Max Wind (mph) Max Wind Time Max Wind Dir (°) Max RH (%) Min RH (%) Wet Bulb (°F) WetB Hrs <28F (hrs) Bat Volt Min Day (V)
12/14/19 - 0001 - 0001 0.00 2.1 13.5 6.0 30.2 0030 NNE | 18 98 59 - - 12.45
12/13/19 - 0001 - 0001 0.00 0.2 81.9 5.7 24.9 2153 N | 349 98 65 - 0.0 12.45
12/12/19 44.0 0928 39.4 0011 0.00 - 81.7 9.2 26.2 0638 N | 349 94 65 - 0.0 12.42
12/11/19 - 2118 33.3 0126 0.00 - 83.0 5.6 24.6 1757 NNW | 336 93 80 - 0.0 12.42
12/10/19 43.8 1520 21.7 0446 0.00 - 72.8 2.6 26.9 2058 NE | 39 100 42 29.7 - 12.43
12/9/19 37.4 1332 23.6 2336 0.00 - 83.4 1.0 4.7 0214 NW | 309 100 87 28.1 - 12.45
12/8/19 40.2 1400 28.5 1946 0.00 4.5 84.0 1.6 15.0 0013 NNW | 348 100 82 33.2 0.0 12.42
12/7/19 41.7 0610 32.6 1931 0.00 2.2 81.4 5.3 30.7 1417 NNE | 27 100 76 36.1 0.0 12.44
12/6/19 47.6 1324 26.4 0747 0.00 - 80.7 5.1 29.2 2019 NNE | 33 100 47 33.4 10.8 12.45
12/5/19 44.3 1305 28.0 2313 0.00 - 81.5 1.1 6.5 1244 NNW | 339 100 73 33.5 0.4 12.40
12/4/19 38.4 1859 30.1 0158 0.00 0.6 82.0 1.6 17.5 1910 N | 349 100 85 33.1 0.0 12.39
12/3/19 43.9 1405 31.5 2321 0.00 - 81.5 1.0 3.8 1649 WNW | 297 100 83 34.6 0.0 12.43
12/2/19 39.1 1158 32.7 0517 0.00 3.3 81.9 0.6 7.0 1118 NNW | 332 100 91 34.5 0.0 12.43
12/1/19 38.8 1122 32.7 2356 0.00 1.8 81.0 2.7 21.3 1646 NNE | 28 100 85 34.6 0.0 12.39
11/30/19 37.9 2223 10.3 0320 0.00 1.3 84.3 1.4 15.3 2222 NNE | 33 100 65 22.2 - 12.41
11/29/19 25.0 1252 17.8 2243 0.00 5.4 17.9 3.4 18.0 2319 NNW | 337 96 68 20.9 - 12.40
11/28/19 32.9 1305 14.7 0732 0.00 1.7 15.5 1.5 9.8 0221 WNW | 295 95 59 21.1 - 12.38
11/27/19 26.9 1056 17.3 2223 0.00 - 17.5 5.4 25.0 0936 NNW | 340 95 69 22.0 - 12.39
11/26/19 31.2 1059 12.0 0646 0.00 5.2 - 5.8 30.7 1208 NNE | 22 98 28 20.4 - 12.39
11/25/19 44.5 0103 17.4 2350 0.00 - 1.4 6.1 25.5 0233 NNE | 17 92 33 26.5 - 12.38
11/24/19 54.1 1520 20.2 0606 0.00 - 0.3 1.1 11.2 1514 NNW | 343 99 22 29.7 - 12.43
11/23/19 46.5 1334 24.4 0540 0.00 - 2.2 1.2 11.5 1043 SSW | 212 99 52 29.8 - 12.43
11/22/19 46.3 1342 27.1 2357 0.00 83.1 - 1.0 6.1 1404 S | 187 98 52 34.3 3.0 12.43
11/21/19 46.0 1358 31.7 0630 0.00 82.4 - 2.0 14.4 0344 SSW | 212 91 52 34.4 0.0 12.42
11/20/19 35.0 1124 32.4 1812 0.00 82.4 - 6.0 20.8 1013 SSW | 204 94 78 32.0 0.0 12.46
11/19/19 52.6 0236 32.4 2017 0.00 83.0 - 6.6 27.0 0249 NE | 34 94 30 - 0.0 12.40
11/18/19 66.9 1323 28.8 0532 0.00 85.9 - 3.1 16.8 1304 N | 6 83 18 37.8 8.4 12.41
11/17/19 64.5 1503 27.0 0422 0.00 87.0 - 1.0 10.8 1501 SSW | 201 99 25 35.0 12.8 12.43
11/16/19 59.7 1335 25.4 0625 0.00 77.7 - 1.0 5.5 1133 S | 182 98 22 - 22.6 12.44
11/15/19 58.5 1327 29.4 2351 0.00 79.8 - 2.2 15.1 0825 N | 1 74 25 36.3 3.8 12.43
Max 66.9 - 39.4 - 0.00 87.0 84.3 9.2 30.7 - - 100 91 37.8 22.6 12.46
Avg - - - - - 36.3 57.6 3.3 - - - - - 30.6 - -
Min 25.0 - 10.3 - 0.00 0.2 0.3 0.6 3.8 - - 74 18 20.4 0.0 12.38